createdAt,value
2022-07-30T00:01:34.396Z,52.20
2022-07-30T00:04:03.377Z,52.20
2022-07-30T00:08:58.639Z,52.30
2022-07-30T00:11:27.873Z,52.20
2022-07-30T00:13:55.963Z,52.20
2022-07-30T00:16:23.261Z,52.20
2022-07-30T00:18:50.273Z,52.10
2022-07-30T00:21:20.496Z,52.00
2022-07-30T00:24:02.656Z,52.10
2022-07-30T00:33:51.188Z,51.90
2022-07-30T00:36:18.164Z,51.90
2022-07-30T00:38:45.544Z,51.70
2022-07-30T00:41:12.881Z,51.70
2022-07-30T00:43:43.804Z,51.90
2022-07-30T00:46:11.144Z,51.90
2022-07-30T00:48:38.327Z,51.80
2022-07-30T00:51:05.326Z,51.80
2022-07-30T00:53:33.284Z,51.90
2022-07-30T00:56:00.404Z,51.80
2022-07-30T00:58:27.628Z,51.80
2022-07-30T01:00:54.516Z,51.80
2022-07-30T01:03:21.721Z,51.70
2022-07-30T01:05:50.073Z,51.80
2022-07-30T01:08:17.113Z,51.70
2022-07-30T01:10:44.781Z,52.00
2022-07-30T01:13:12.712Z,51.80
2022-07-30T01:15:39.766Z,51.70
2022-07-30T01:18:10.046Z,51.70
2022-07-30T01:20:45.591Z,51.60
2022-07-30T01:23:25.133Z,51.60
2022-07-30T01:25:56.592Z,51.50
2022-07-30T01:28:51.429Z,51.60
2022-07-30T01:31:20.860Z,51.40
2022-07-30T01:33:49.493Z,51.40
2022-07-30T01:36:22.244Z,51.40
2022-07-30T01:38:51.266Z,51.40
2022-07-30T01:41:19.775Z,51.40
2022-07-30T01:43:47.405Z,51.30
2022-07-30T01:46:16.623Z,51.30
2022-07-30T01:48:46.808Z,51.20
2022-07-30T01:51:16.852Z,51.20
2022-07-30T01:53:49.979Z,51.30
2022-07-30T01:56:24.653Z,52.80
2022-07-30T01:58:54.196Z,51.20
2022-07-30T02:01:24.592Z,51.20
2022-07-30T02:03:57.883Z,51.20
2022-07-30T02:06:36.016Z,51.20
2022-07-30T02:09:11.309Z,51.70
2022-07-30T02:12:07.873Z,51.30
2022-07-30T02:14:43.331Z,51.40
2022-07-30T02:17:18.679Z,51.10
2022-07-30T02:19:49.846Z,51.00
2022-07-30T02:22:18.504Z,50.90
2022-07-30T02:24:47.896Z,50.80
2022-07-30T02:27:22.156Z,50.70
2022-07-30T02:29:51.696Z,50.80
2022-07-30T02:32:21.776Z,50.90
2022-07-30T02:34:55.739Z,50.90
2022-07-30T02:37:42.837Z,50.70
2022-07-30T02:40:15.935Z,50.70
2022-07-30T02:42:45.640Z,50.50
2022-07-30T02:45:17.764Z,50.40
2022-07-30T02:47:48.257Z,50.30
2022-07-30T02:50:17.568Z,50.30
2022-07-30T02:52:45.235Z,50.20
2022-07-30T02:55:13.098Z,50.10
2022-07-30T02:57:43.591Z,50.10
2022-07-30T03:00:12.674Z,49.90
2022-07-30T03:02:40.704Z,50.00
2022-07-30T03:05:13.629Z,49.90
2022-07-30T03:07:41.260Z,50.10
2022-07-30T03:10:09.019Z,50.30
2022-07-30T03:12:38.916Z,50.40
2022-07-30T03:15:06.385Z,50.20
2022-07-30T03:17:44.719Z,50.10
2022-07-30T03:20:15.478Z,50.10
2022-07-30T03:22:45.295Z,49.80
2022-07-30T03:25:16.472Z,49.70
2022-07-30T03:27:46.608Z,49.80
2022-07-30T03:30:13.964Z,49.70
2022-07-30T03:32:41.419Z,49.70
2022-07-30T03:35:17.114Z,49.80
2022-07-30T03:37:46.297Z,49.90
2022-07-30T03:40:14.472Z,49.70
2022-07-30T03:45:10.557Z,49.70
2022-07-30T03:47:40.295Z,49.60
2022-07-30T03:50:08.394Z,49.70
2022-07-30T03:52:40.913Z,49.60
2022-07-30T03:55:11.676Z,49.80
2022-07-30T03:57:38.668Z,50.00
2022-07-30T04:00:12.787Z,49.90
2022-07-30T04:02:49.170Z,49.70
2022-07-30T04:05:18.740Z,49.80
2022-07-30T04:07:47.356Z,50.40
2022-07-30T04:10:17.097Z,49.80
2022-07-30T04:13:09.426Z,49.80
2022-07-30T04:16:37.206Z,49.70
2022-07-30T04:18:51.972Z,49.70
2022-07-30T04:21:25.006Z,49.40
2022-07-30T04:24:04.286Z,49.70
2022-07-30T04:26:35.684Z,49.30
2022-07-30T04:29:07.497Z,49.20
2022-07-30T04:31:38.414Z,49.30
2022-07-30T04:34:48.271Z,49.20
2022-07-30T04:37:18.932Z,49.40
2022-07-30T04:39:46.120Z,49.50
2022-07-30T04:42:13.090Z,49.50
2022-07-30T04:44:41.031Z,49.60
2022-07-30T04:47:24.672Z,49.90
2022-07-30T04:50:12.388Z,49.80
2022-07-30T04:52:40.132Z,49.90
2022-07-30T04:55:11.147Z,50.10
2022-07-30T04:57:42.495Z,49.90
2022-07-30T05:00:09.955Z,50.00
2022-07-30T05:02:41.580Z,50.20
2022-07-30T05:05:10.803Z,50.20
2022-07-30T05:07:39.379Z,50.90
2022-07-30T05:10:08.975Z,51.30
2022-07-30T05:12:39.969Z,50.70
2022-07-30T05:15:09.617Z,50.70
2022-07-30T05:17:37.931Z,50.60
2022-07-30T05:20:08.271Z,50.50
2022-07-30T05:25:21.430Z,50.50
2022-07-30T05:27:51.253Z,50.40
2022-07-30T05:30:18.123Z,50.40
2022-07-30T05:32:49.259Z,50.60
2022-07-30T05:35:16.972Z,50.60
2022-07-30T05:37:43.929Z,50.50
2022-07-30T05:40:12.003Z,50.60
2022-07-30T05:42:38.813Z,50.60
2022-07-30T05:45:08.594Z,50.80
2022-07-30T05:47:35.702Z,51.30
2022-07-30T05:50:05.182Z,51.70
2022-07-30T05:52:33.620Z,51.60
2022-07-30T05:55:11.199Z,51.70
2022-07-30T05:57:53.442Z,52.00
2022-07-30T06:00:20.675Z,52.60
2022-07-30T06:02:54.013Z,52.50
2022-07-30T06:05:27.313Z,53.20
2022-07-30T06:07:57.650Z,52.80
2022-07-30T06:10:26.452Z,53.10
2022-07-30T06:12:55.639Z,53.00
2022-07-30T06:15:26.354Z,54.90
2022-07-30T06:17:59.479Z,53.40
2022-07-30T06:20:54.283Z,55.50
2022-07-30T06:23:39.579Z,54.30
2022-07-30T06:26:17.209Z,54.90
2022-07-30T06:28:44.309Z,53.50
2022-07-30T06:31:22.836Z,55.40
2022-07-30T06:33:49.739Z,53.40
2022-07-30T06:36:16.712Z,53.50
2022-07-30T06:38:53.300Z,53.60
2022-07-30T06:41:30.094Z,53.60
2022-07-30T06:43:58.601Z,53.60
2022-07-30T06:46:41.866Z,55.50
2022-07-30T06:49:10.714Z,56.10
2022-07-30T06:51:37.637Z,55.10
2022-07-30T06:54:04.486Z,54.40
2022-07-30T06:56:34.151Z,55.60
2022-07-30T06:59:04.449Z,56.10
2022-07-30T07:01:53.978Z,54.50
2022-07-30T07:04:21.452Z,54.80
2022-07-30T07:06:48.325Z,55.80
2022-07-30T07:09:23.974Z,55.80
2022-07-30T07:12:07.186Z,54.80
2022-07-30T07:14:34.008Z,54.70
2022-07-30T07:20:05.409Z,54.70
2022-07-30T07:25:14.186Z,54.80
2022-07-30T07:27:41.806Z,57.40
2022-07-30T07:30:09.131Z,55.10
2022-07-30T07:32:37.421Z,55.10
2022-07-30T07:35:05.901Z,55.10
2022-07-30T07:37:34.911Z,55.00
2022-07-30T07:40:03.594Z,55.00
2022-07-30T07:42:33.875Z,55.90
2022-07-30T07:45:01.240Z,55.20
2022-07-30T07:47:51.572Z,54.80
2022-07-30T07:50:54.949Z,54.70
2022-07-30T07:53:28.239Z,54.80
2022-07-30T07:55:57.159Z,54.70
2022-07-30T07:58:26.117Z,54.60
2022-07-30T08:00:56.068Z,54.50
2022-07-30T08:03:33.126Z,54.50
2022-07-30T08:06:06.903Z,54.60
2022-07-30T08:08:47.640Z,56.30
2022-07-30T08:11:33.076Z,54.40
2022-07-30T08:14:22.904Z,54.20
2022-07-30T08:17:19.946Z,54.40
2022-07-30T08:20:07.375Z,54.30
2022-07-30T08:22:34.518Z,53.70
2022-07-30T08:25:03.815Z,54.30
2022-07-30T08:27:31.442Z,54.20
2022-07-30T08:29:59.221Z,55.20
2022-07-30T08:32:26.061Z,54.00
2022-07-30T08:34:53.198Z,53.80
2022-07-30T08:37:21.211Z,55.20
2022-07-30T08:39:48.076Z,53.80
2022-07-30T08:42:15.111Z,53.90
2022-07-30T08:44:44.179Z,53.70
2022-07-30T08:47:15.095Z,53.70
2022-07-30T08:50:05.104Z,54.30
2022-07-30T08:52:36.912Z,53.40
2022-07-30T08:55:07.640Z,53.30
2022-07-30T08:57:35.678Z,53.30
2022-07-30T09:00:07.513Z,53.60
2022-07-30T09:02:34.439Z,54.00
2022-07-30T09:05:04.763Z,53.20
2022-07-30T09:07:34.005Z,53.20
2022-07-30T09:10:02.459Z,53.30
2022-07-30T09:12:44.961Z,52.90
2022-07-30T09:15:16.467Z,52.90
2022-07-30T09:17:49.113Z,53.10
2022-07-30T09:20:16.212Z,52.90
2022-07-30T09:22:45.657Z,52.70
2022-07-30T09:25:36.415Z,52.70
2022-07-30T09:28:32.130Z,53.30
2022-07-30T09:31:20.276Z,54.60
2022-07-30T09:34:24.914Z,53.30
2022-07-30T09:37:00.137Z,52.50
2022-07-30T09:39:35.539Z,53.30
2022-07-30T09:42:23.497Z,52.10
2022-07-30T09:44:52.559Z,52.40
2022-07-30T09:47:44.617Z,52.40
2022-07-30T09:50:13.603Z,52.70
2022-07-30T09:53:07.797Z,53.20
2022-07-30T09:55:41.227Z,53.00
2022-07-30T09:58:10.202Z,52.30
2022-07-30T10:00:42.703Z,53.00
2022-07-30T10:03:34.124Z,53.20
2022-07-30T10:06:34.513Z,52.20
2022-07-30T10:09:14.400Z,53.00
2022-07-30T10:11:46.187Z,52.00
2022-07-30T10:14:14.080Z,52.00
2022-07-30T10:16:41.213Z,51.90
2022-07-30T10:19:17.980Z,53.20
2022-07-30T10:22:20.361Z,51.80
2022-07-30T10:25:06.379Z,53.40
2022-07-30T10:27:57.814Z,52.40
2022-07-30T10:30:29.343Z,52.50
2022-07-30T10:32:58.503Z,52.40
2022-07-30T10:35:34.603Z,52.30
2022-07-30T10:38:09.863Z,51.60
2022-07-30T10:40:43.389Z,52.30
2022-07-30T10:43:36.818Z,51.50
2022-07-30T10:46:34.943Z,51.80
2022-07-30T10:49:17.393Z,51.70
2022-07-30T10:51:48.261Z,51.60
2022-07-30T10:54:33.904Z,52.00
2022-07-30T10:57:09.308Z,52.30
2022-07-30T11:00:05.202Z,53.30
2022-07-30T11:02:35.261Z,52.00
2022-07-30T11:05:18.684Z,51.80
2022-07-30T11:08:42.864Z,53.20
2022-07-30T11:11:59.176Z,51.60
2022-07-30T11:14:08.817Z,51.80
2022-07-30T11:16:35.541Z,51.50
2022-07-30T11:19:55.835Z,51.70
2022-07-30T11:22:22.630Z,50.70
2022-07-30T11:24:50.070Z,51.70
2022-07-30T11:27:38.741Z,50.70
2022-07-30T11:30:18.134Z,51.30
2022-07-30T11:32:48.347Z,51.40
2022-07-30T11:35:25.136Z,51.20
2022-07-30T11:38:02.708Z,51.40
2022-07-30T11:40:36.398Z,50.70
2022-07-30T11:43:34.859Z,51.30
2022-07-30T11:46:29.034Z,51.40
2022-07-30T11:49:04.670Z,50.60
2022-07-30T11:51:45.782Z,51.10
2022-07-30T11:54:13.915Z,51.00
2022-07-30T11:56:55.581Z,51.10
2022-07-30T11:59:22.646Z,50.90
2022-07-30T12:01:56.760Z,51.20
2022-07-30T12:04:24.469Z,51.60
2022-07-30T12:06:51.456Z,50.30
2022-07-30T12:09:23.384Z,51.90
2022-07-30T12:11:54.459Z,50.90
2022-07-30T12:14:21.276Z,51.20
2022-07-30T12:16:53.300Z,50.20
2022-07-30T12:19:20.198Z,50.10
2022-07-30T12:21:50.989Z,50.10
2022-07-30T12:24:25.355Z,50.00
2022-07-30T12:26:52.204Z,50.80
2022-07-30T12:29:19.162Z,51.20
2022-07-30T12:31:46.499Z,51.10
2022-07-30T12:34:21.694Z,51.00
2022-07-30T12:36:48.966Z,50.80
2022-07-30T12:39:26.784Z,50.80
2022-07-30T12:41:57.839Z,50.70
2022-07-30T12:44:42.124Z,50.70
2022-07-30T12:47:20.318Z,49.80
2022-07-30T12:49:49.627Z,50.90
2022-07-30T12:52:28.798Z,52.30
2022-07-30T12:55:08.919Z,51.00
2022-07-30T12:58:01.735Z,50.00
2022-07-30T13:00:52.805Z,50.00
2022-07-30T13:03:27.720Z,50.40
2022-07-30T13:05:56.346Z,50.40
2022-07-30T13:08:44.988Z,50.40
2022-07-30T13:11:12.249Z,49.90
2022-07-30T13:13:39.443Z,50.00
2022-07-30T13:16:07.447Z,49.70
2022-07-30T13:18:36.029Z,49.60
2022-07-30T13:21:04.630Z,49.60
2022-07-30T13:23:32.169Z,49.60
2022-07-30T13:25:59.402Z,49.50
2022-07-30T13:28:26.955Z,49.50
2022-07-30T13:30:53.882Z,49.40
2022-07-30T13:33:20.651Z,51.50
2022-07-30T13:35:47.572Z,49.40
2022-07-30T13:38:15.487Z,51.10
2022-07-30T13:40:42.546Z,49.40
2022-07-30T13:43:09.608Z,49.40
2022-07-30T13:45:36.876Z,49.30
2022-07-30T13:48:04.222Z,49.40
2022-07-30T13:50:31.260Z,49.30
2022-07-30T13:53:02.096Z,50.50
2022-07-30T13:55:29.826Z,50.80
2022-07-30T13:57:56.952Z,50.40
2022-07-30T14:00:24.538Z,47.90
2022-07-30T14:02:51.572Z,49.40
2022-07-30T14:05:18.455Z,49.30
2022-07-30T14:07:45.205Z,49.20
2022-07-30T14:10:11.955Z,49.00
2022-07-30T14:12:39.924Z,49.20
2022-07-30T14:15:07.343Z,50.40
2022-07-30T14:20:01.955Z,49.10
2022-07-30T14:22:28.792Z,49.20
2022-07-30T14:24:55.665Z,49.20
2022-07-30T14:27:22.604Z,50.70
2022-07-30T14:29:49.455Z,49.20
2022-07-30T14:32:16.359Z,49.10
2022-07-30T14:34:49.468Z,49.10
2022-07-30T14:37:16.747Z,49.20
2022-07-30T14:39:43.592Z,49.00
2022-07-30T14:42:10.881Z,49.10
2022-07-30T14:44:37.763Z,49.50
2022-07-30T14:47:05.003Z,48.90
2022-07-30T14:49:32.058Z,49.20
2022-07-30T14:51:58.988Z,49.10
2022-07-30T14:54:27.755Z,49.30
2022-07-30T14:56:59.580Z,49.20
2022-07-30T14:59:27.471Z,49.30
2022-07-30T15:01:55.202Z,50.40
2022-07-30T15:04:22.467Z,50.70
2022-07-30T15:06:49.347Z,50.20
2022-07-30T15:09:16.190Z,51.20
2022-07-30T15:12:07.929Z,50.40
2022-07-30T15:14:30.059Z,49.30
2022-07-30T15:17:03.457Z,50.80
2022-07-30T15:19:31.220Z,50.00
2022-07-30T15:21:59.099Z,49.10
2022-07-30T15:24:26.302Z,49.80
2022-07-30T15:26:55.765Z,50.10
2022-07-30T15:29:24.081Z,49.80
2022-07-30T15:31:51.447Z,48.90
2022-07-30T15:34:18.366Z,48.70
2022-07-30T15:36:45.527Z,50.20
2022-07-30T15:39:13.355Z,48.70
2022-07-30T15:41:42.679Z,48.40
2022-07-30T15:44:09.666Z,49.50
2022-07-30T15:46:36.589Z,49.60
2022-07-30T15:49:03.533Z,48.20
2022-07-30T15:51:32.533Z,48.30
2022-07-30T15:53:59.672Z,48.50
2022-07-30T15:56:28.154Z,48.30
2022-07-30T15:58:55.378Z,48.00
2022-07-30T16:01:22.777Z,49.20
2022-07-30T16:03:49.656Z,48.60
2022-07-30T16:06:16.553Z,49.80
2022-07-30T16:08:43.295Z,48.20
2022-07-30T16:11:10.944Z,48.20
2022-07-30T16:13:38.159Z,49.70
2022-07-30T16:16:05.156Z,48.20
2022-07-30T16:18:32.056Z,49.80
2022-07-30T16:21:01.087Z,50.20
2022-07-30T16:23:28.635Z,48.30
2022-07-30T16:26:04.347Z,49.50
2022-07-30T16:28:31.586Z,49.40
2022-07-30T16:30:58.665Z,48.50
2022-07-30T16:33:25.494Z,48.80
2022-07-30T16:35:52.370Z,50.00
2022-07-30T16:38:20.184Z,49.80
2022-07-30T16:40:47.502Z,49.90
2022-07-30T16:43:15.578Z,49.40
2022-07-30T16:45:43.761Z,49.20
2022-07-30T16:48:11.411Z,49.30
2022-07-30T16:50:40.495Z,49.90
2022-07-30T16:53:14.243Z,49.30
2022-07-30T16:55:42.620Z,49.50
2022-07-30T16:58:10.095Z,50.30
2022-07-30T17:00:37.677Z,50.30
2022-07-30T17:03:04.816Z,49.60
2022-07-30T17:05:31.854Z,51.20
2022-07-30T17:07:58.925Z,49.50
2022-07-30T17:10:27.205Z,50.20
2022-07-30T17:12:57.132Z,49.70
2022-07-30T17:15:32.410Z,49.70
2022-07-30T17:18:00.963Z,49.60
2022-07-30T17:20:28.971Z,49.80
2022-07-30T17:22:56.110Z,49.90
2022-07-30T17:25:27.131Z,49.90
2022-07-30T17:27:58.355Z,51.80
2022-07-30T17:30:26.959Z,50.90
2022-07-30T17:32:54.014Z,50.10
2022-07-30T17:35:21.475Z,51.30
2022-07-30T17:37:48.337Z,51.60
2022-07-30T17:40:29.164Z,51.90
2022-07-30T17:43:05.786Z,50.40
2022-07-30T17:45:34.194Z,51.00
2022-07-30T17:48:03.822Z,50.40
2022-07-30T17:50:32.461Z,51.10
2022-07-30T17:52:59.907Z,52.40
2022-07-30T17:55:30.787Z,51.70
2022-07-30T17:57:57.643Z,50.70
2022-07-30T18:00:24.523Z,50.60
2022-07-30T18:02:51.368Z,51.80
2022-07-30T18:05:18.316Z,54.00
2022-07-30T18:07:45.220Z,52.00
2022-07-30T18:10:12.701Z,52.30
2022-07-30T18:12:49.081Z,52.10
2022-07-30T18:15:17.547Z,50.80
2022-07-30T18:17:44.647Z,51.70
2022-07-30T18:20:12.317Z,51.90
2022-07-30T18:22:40.303Z,50.70
2022-07-30T18:25:16.528Z,50.80
2022-07-30T18:27:45.634Z,51.90
2022-07-30T18:30:12.723Z,51.00
2022-07-30T18:32:39.562Z,52.10
2022-07-30T18:35:09.761Z,53.20
2022-07-30T18:37:41.667Z,51.80
2022-07-30T18:40:09.136Z,50.90
2022-07-30T18:42:36.005Z,52.00
2022-07-30T18:45:03.026Z,51.10
2022-07-30T18:47:29.798Z,51.00
2022-07-30T18:49:56.722Z,51.20
2022-07-30T18:52:23.674Z,52.60
2022-07-30T18:54:50.879Z,51.30
2022-07-30T18:57:17.965Z,50.80
2022-07-30T18:59:44.756Z,52.90
2022-07-30T19:02:11.666Z,51.40
2022-07-30T19:04:38.515Z,51.40
2022-07-30T19:09:34.006Z,50.50
2022-07-30T19:12:01.129Z,50.50
2022-07-30T19:14:28.511Z,50.30
2022-07-30T19:16:59.403Z,50.00
2022-07-30T19:19:27.345Z,49.40
2022-07-30T19:21:54.436Z,48.60
2022-07-30T19:24:21.361Z,47.90
2022-07-30T19:26:48.732Z,47.30
2022-07-30T19:29:15.599Z,46.80
2022-07-30T19:31:42.485Z,46.30
2022-07-30T19:34:10.954Z,46.20
2022-07-30T19:36:38.418Z,46.90
2022-07-30T19:39:07.688Z,46.00
2022-07-30T19:41:40.488Z,45.60
2022-07-30T19:44:11.963Z,45.50
2022-07-30T19:46:39.308Z,45.30
2022-07-30T19:49:09.323Z,44.90
2022-07-30T19:52:17.702Z,44.90
2022-07-30T19:54:25.036Z,44.90
2022-07-30T19:56:52.274Z,44.70
2022-07-30T19:59:19.233Z,44.70
2022-07-30T20:02:06.317Z,44.80
2022-07-30T20:04:35.301Z,44.70
2022-07-30T20:07:02.186Z,44.60
2022-07-30T20:09:31.076Z,46.10
2022-07-30T20:11:59.933Z,44.60
2022-07-30T20:14:29.958Z,44.80
2022-07-30T20:16:56.810Z,44.60
2022-07-30T20:19:28.822Z,44.90
2022-07-30T20:22:03.030Z,44.70
2022-07-30T20:24:30.114Z,44.80
2022-07-30T20:26:58.046Z,44.80
2022-07-30T20:29:24.918Z,44.90
2022-07-30T20:31:51.964Z,44.90
2022-07-30T20:36:52.849Z,44.90
2022-07-30T20:39:21.030Z,44.90
2022-07-30T20:41:47.981Z,44.80
2022-07-30T20:44:23.680Z,44.80
2022-07-30T20:46:52.490Z,44.70
2022-07-30T20:49:23.789Z,44.60
2022-07-30T20:52:01.454Z,45.10
2022-07-30T20:54:30.209Z,44.80
2022-07-30T20:56:57.386Z,44.80
2022-07-30T20:59:24.968Z,44.80
2022-07-30T21:01:51.777Z,46.00
2022-07-30T21:04:23.950Z,46.60
2022-07-30T21:06:52.460Z,45.20
2022-07-30T21:09:19.500Z,45.70
2022-07-30T21:11:50.361Z,47.20
2022-07-30T21:14:19.923Z,45.80
2022-07-30T21:16:46.839Z,46.00
2022-07-30T21:19:16.467Z,46.40
2022-07-30T21:21:48.216Z,46.80
2022-07-30T21:24:19.342Z,47.20
2022-07-30T21:26:48.760Z,47.30
2022-07-30T21:29:16.198Z,48.10
2022-07-30T21:32:01.514Z,47.50
2022-07-30T21:34:35.879Z,47.80
2022-07-30T21:37:07.736Z,48.20
2022-07-30T21:39:39.897Z,48.30
2022-07-30T21:42:08.465Z,49.90
2022-07-30T21:44:37.550Z,49.70
2022-07-30T21:47:05.714Z,49.10
2022-07-30T21:49:37.874Z,50.10
2022-07-30T21:52:05.352Z,50.60
2022-07-30T21:54:48.406Z,51.40
2022-07-30T21:57:26.413Z,51.20
2022-07-30T21:59:57.974Z,50.60
2022-07-30T22:04:54.916Z,51.20
2022-07-30T22:07:22.118Z,51.60
2022-07-30T22:09:49.227Z,51.80
2022-07-30T22:12:18.228Z,52.20
2022-07-30T22:15:03.200Z,52.30
2022-07-30T22:17:36.899Z,52.60
2022-07-30T22:20:17.781Z,52.80
2022-07-30T22:22:46.326Z,52.90
2022-07-30T22:25:13.581Z,53.90
2022-07-30T22:27:55.918Z,53.20
2022-07-30T22:30:26.587Z,54.00
2022-07-30T22:32:54.355Z,53.30
2022-07-30T22:35:33.567Z,54.60
2022-07-30T22:38:01.765Z,55.00
2022-07-30T22:40:28.510Z,53.80
2022-07-30T22:42:55.427Z,53.70
2022-07-30T22:45:42.275Z,55.20
2022-07-30T22:48:10.243Z,55.30
2022-07-30T22:50:40.307Z,53.80
2022-07-30T22:53:23.678Z,54.60
2022-07-30T22:55:54.918Z,55.40
2022-07-30T22:58:22.165Z,55.20
2022-07-30T23:00:53.412Z,55.50
2022-07-30T23:03:21.050Z,54.00
2022-07-30T23:05:55.328Z,54.00
2022-07-30T23:08:30.281Z,55.50
2022-07-30T23:10:59.446Z,54.90
2022-07-30T23:13:27.267Z,54.00
2022-07-30T23:15:53.990Z,55.00
2022-07-30T23:18:20.804Z,55.80
2022-07-30T23:20:47.645Z,54.20
2022-07-30T23:23:15.065Z,54.20
2022-07-30T23:25:41.934Z,55.60
2022-07-30T23:28:08.700Z,55.80
2022-07-30T23:30:35.596Z,55.80
2022-07-30T23:33:02.683Z,54.30
2022-07-30T23:35:29.501Z,54.30
2022-07-30T23:37:57.306Z,54.40
2022-07-30T23:40:24.291Z,54.50
2022-07-30T23:42:51.790Z,54.60
2022-07-30T23:45:19.119Z,54.70
2022-07-30T23:48:01.966Z,54.70
2022-07-30T23:50:33.563Z,54.50
2022-07-30T23:53:01.941Z,54.70
2022-07-30T23:55:30.163Z,55.50
